Time;durP1;ratioP1;P1;durP2;ratioP2;P2;SDS_P1;SDS_P2;PMS_P1;PMS_P2;Temp;Humidity;BMP_temperature;BMP_pressure;BME280_temperature;BME280_humidity;BME280_pressure;Samples;Min_cycle;Max_cycle;Signal;HPM_P1;HPM_P2
2022/05/17 00:00:35;;;;;;;;;;;14.60;99.90;;;;;;5049720;28;19948;-77
2022/05/17 00:03:01;;;;;;;;;;;14.60;99.90;;;;;;5034421;28;19932;-77
2022/05/17 00:05:27;;;;;;;;;;;14.60;99.90;;;;;;5033973;28;19931;-77
2022/05/17 00:07:53;;;;;;;;;;;14.60;99.90;;;;;;5051843;28;19982;-77
2022/05/17 00:10:21;;;;;;;;;;;14.60;99.90;;;;;;5035031;28;20324;-77
2022/05/17 00:12:50;;;;;;;;;;;14.60;99.90;;;;;;5052481;28;19932;-77
2022/05/17 00:15:16;;;;;;;;;;;14.60;99.90;;;;;;5050745;28;20409;-77
2022/05/17 00:17:42;;;;;;;;;;;14.60;99.90;;;;;;5034503;28;20151;-77
2022/05/17 00:20:08;;;;;;;;;;;14.60;99.90;;;;;;5052148;28;19931;-77
2022/05/17 00:22:34;;;;;;;;;;;14.60;99.90;;;;;;5033783;28;19931;-77
2022/05/17 00:25:00;;;;;;;;;;;14.60;99.90;;;;;;5051814;28;19959;-77
2022/05/17 00:27:26;;;;;;;;;;;14.50;99.90;;;;;;5052072;28;19928;-77
2022/05/17 00:29:51;;;;;;;;;;;14.50;99.90;;;;;;5033815;28;19925;-77
2022/05/17 00:32:17;;;;;;;;;;;14.50;99.90;;;;;;5034254;28;19944;-77
2022/05/17 00:34:44;;;;;;;;;;;14.50;99.90;;;;;;5034011;28;19929;-77
2022/05/17 00:37:10;;;;;;;;;;;14.50;99.90;;;;;;5051808;28;20372;-76
2022/05/17 00:39:35;;;;;;;;;;;14.50;99.90;;;;;;5051570;28;19940;-77
2022/05/17 00:42:01;;;;;;;;;;;14.40;99.90;;;;;;5034393;28;19920;-78
2022/05/17 00:44:45;;;;;;;;;;;14.50;99.90;;;;;;5052111;28;19960;-77
2022/05/17 00:47:17;;;;;;;;;;;14.50;99.90;;;;;;5033851;28;19978;-77
2022/05/17 00:49:50;;;;;;;;;;;14.50;99.90;;;;;;5034123;28;19936;-77
2022/05/17 00:52:25;;;;;;;;;;;14.40;99.90;;;;;;5051697;28;19929;-77
2022/05/17 00:54:52;;;;;;;;;;;14.40;99.90;;;;;;5034389;28;19939;-78
2022/05/17 00:57:31;;;;;;;;;;;14.40;99.90;;;;;;5051711;28;19932;-77
2022/05/17 00:59:58;;;;;;;;;;;14.30;99.90;;;;;;5044037;28;19929;-77
2022/05/17 01:02:24;;;;;;;;;;;14.30;99.90;;;;;;5036118;28;20015;-78
2022/05/17 01:04:50;;;;;;;;;;;14.30;99.90;;;;;;5051245;28;20019;-77
2022/05/17 01:07:17;;;;;;;;;;;14.30;99.90;;;;;;5047224;28;19928;-77
2022/05/17 01:09:43;;;;;;;;;;;14.30;99.90;;;;;;5051409;28;19929;-77
2022/05/17 01:12:09;;;;;;;;;;;14.20;99.90;;;;;;5033911;28;19925;-77
2022/05/17 01:17:21;;;;;;;;;;;14.30;99.90;;;;;;5017180;28;19925;-77
2022/05/17 01:19:47;;;;;;;;;;;14.30;99.90;;;;;;5034002;28;20273;-77
2022/05/17 01:22:13;;;;;;;;;;;14.30;99.90;;;;;;5050635;28;19940;-77
2022/05/17 01:24:38;;;;;;;;;;;14.30;99.90;;;;;;5033270;28;19925;-77
2022/05/17 01:27:07;;;;;;;;;;;14.30;99.90;;;;;;5038026;28;19924;-77
2022/05/17 01:29:40;;;;;;;;;;;14.40;99.90;;;;;;5054318;28;19936;-77
2022/05/17 01:32:06;;;;;;;;;;;14.30;99.90;;;;;;5037668;28;19929;-77
2022/05/17 01:34:33;;;;;;;;;;;14.30;99.90;;;;;;5037239;28;20414;-77
2022/05/17 01:36:59;;;;;;;;;;;14.40;99.90;;;;;;5037591;28;19929;-77
2022/05/17 01:39:24;;;;;;;;;;;14.40;99.90;;;;;;5036805;28;20007;-77
2022/05/17 01:41:50;;;;;;;;;;;14.40;99.90;;;;;;5020583;28;20610;-77
2022/05/17 01:44:15;;;;;;;;;;;14.40;99.90;;;;;;5054498;28;19935;-78
2022/05/17 01:46:41;;;;;;;;;;;14.40;99.90;;;;;;5036310;28;20319;-77
2022/05/17 01:49:07;;;;;;;;;;;14.40;99.90;;;;;;5054696;28;19924;-77
2022/05/17 01:51:32;;;;;;;;;;;14.40;99.90;;;;;;5016268;28;20059;-77
2022/05/17 01:53:58;;;;;;;;;;;14.40;99.90;;;;;;5035481;28;20041;-77
2022/05/17 01:56:24;;;;;;;;;;;14.40;99.90;;;;;;5037082;28;19924;-77
2022/05/17 01:58:49;;;;;;;;;;;14.40;99.90;;;;;;5053787;28;20320;-77
2022/05/17 02:01:15;;;;;;;;;;;14.30;99.90;;;;;;5036983;28;19943;-77
2022/05/17 02:03:40;;;;;;;;;;;14.30;99.90;;;;;;5036522;28;19971;-77
2022/05/17 02:06:06;;;;;;;;;;;14.30;99.90;;;;;;5020221;28;19928;-78
2022/05/17 02:08:32;;;;;;;;;;;14.20;99.90;;;;;;5037055;28;19925;-77
2022/05/17 02:10:58;;;;;;;;;;;14.30;99.90;;;;;;5019499;28;20289;-77
2022/05/17 02:13:23;;;;;;;;;;;14.20;99.90;;;;;;5054494;28;20078;-81
2022/05/17 02:15:49;;;;;;;;;;;14.20;99.90;;;;;;5054202;28;20316;-77
2022/05/17 02:18:14;;;;;;;;;;;14.20;99.90;;;;;;5036510;28;20269;-77
2022/05/17 02:20:40;;;;;;;;;;;14.10;99.90;;;;;;5053986;28;19925;-77
2022/05/17 02:23:07;;;;;;;;;;;14.10;99.90;;;;;;5053753;28;20385;-78
2022/05/17 02:25:36;;;;;;;;;;;14.10;99.90;;;;;;5054483;28;19928;-77
2022/05/17 02:28:03;;;;;;;;;;;14.10;99.90;;;;;;5054242;28;19935;-77
2022/05/17 02:30:29;;;;;;;;;;;14.00;99.90;;;;;;5053125;28;19932;-77
2022/05/17 02:32:55;;;;;;;;;;;14.00;99.90;;;;;;5033910;28;20300;-77
2022/05/17 02:35:21;;;;;;;;;;;13.90;99.90;;;;;;5045892;28;19935;-77
2022/05/17 02:37:46;;;;;;;;;;;13.90;99.90;;;;;;5035053;28;19928;-77
2022/05/17 02:40:13;;;;;;;;;;;13.90;99.90;;;;;;5053775;28;19929;-78
2022/05/17 02:42:38;;;;;;;;;;;13.80;99.90;;;;;;5052893;28;20373;-81
2022/05/17 02:45:05;;;;;;;;;;;13.80;99.90;;;;;;5035650;28;19925;-78
2022/05/17 02:47:31;;;;;;;;;;;13.80;99.90;;;;;;5036593;28;20391;-77
2022/05/17 02:49:56;;;;;;;;;;;13.80;99.90;;;;;;5053401;28;19972;-77
2022/05/17 02:52:23;;;;;;;;;;;13.80;99.90;;;;;;5002590;28;19951;-77
2022/05/17 02:54:48;;;;;;;;;;;13.70;99.90;;;;;;5035767;28;19947;-77
2022/05/17 02:57:14;;;;;;;;;;;13.70;99.90;;;;;;5053811;28;20431;-77
2022/05/17 02:59:39;;;;;;;;;;;13.70;99.90;;;;;;5035279;28;19921;-77
2022/05/17 03:02:05;;;;;;;;;;;13.60;99.90;;;;;;5034908;28;19983;-77
2022/05/17 03:04:31;;;;;;;;;;;13.60;99.90;;;;;;5035853;28;20031;-77
2022/05/17 03:06:56;;;;;;;;;;;13.60;99.90;;;;;;5018411;28;19928;-77
2022/05/17 03:09:22;;;;;;;;;;;13.60;99.90;;;;;;5019718;28;19939;-77
2022/05/17 03:11:47;;;;;;;;;;;13.60;99.90;;;;;;5052986;28;19924;-77
2022/05/17 03:14:14;;;;;;;;;;;13.60;99.90;;;;;;5035319;28;19925;-77
2022/05/17 03:16:40;;;;;;;;;;;13.60;99.90;;;;;;5053416;28;19925;-77
2022/05/17 03:19:06;;;;;;;;;;;13.60;99.90;;;;;;5035430;28;20396;-77
2022/05/17 03:21:32;;;;;;;;;;;13.60;99.90;;;;;;5034738;28;19931;-77
2022/05/17 03:23:57;;;;;;;;;;;13.60;99.90;;;;;;5034688;28;19995;-77
2022/05/17 03:26:23;;;;;;;;;;;13.60;99.90;;;;;;5035397;28;19924;-77
2022/05/17 03:28:49;;;;;;;;;;;13.60;99.90;;;;;;5052506;28;19998;-77
2022/05/17 03:31:14;;;;;;;;;;;13.60;99.90;;;;;;5052676;28;19986;-77
2022/05/17 03:33:40;;;;;;;;;;;13.60;99.90;;;;;;5052556;28;19925;-77
2022/05/17 03:36:06;;;;;;;;;;;13.60;99.90;;;;;;5034596;28;19928;-77
2022/05/17 03:38:32;;;;;;;;;;;13.70;99.90;;;;;;5035449;28;19925;-77
2022/05/17 03:40:58;;;;;;;;;;;13.70;99.90;;;;;;5034878;28;19924;-77
2022/05/17 03:43:24;;;;;;;;;;;13.70;99.90;;;;;;5034065;28;19947;-76
2022/05/17 03:45:50;;;;;;;;;;;13.70;99.90;;;;;;5035105;28;20004;-77
2022/05/17 03:48:16;;;;;;;;;;;13.70;99.90;;;;;;5034671;28;20023;-77
2022/05/17 03:50:42;;;;;;;;;;;13.70;99.90;;;;;;5051824;28;19925;-78
2022/05/17 03:53:08;;;;;;;;;;;13.80;99.90;;;;;;5034172;28;20019;-77
2022/05/17 03:55:33;;;;;;;;;;;13.90;99.90;;;;;;5034979;28;20032;-77
2022/05/17 03:57:59;;;;;;;;;;;14.00;99.90;;;;;;5034556;28;20250;-77
2022/05/17 04:00:24;;;;;;;;;;;14.00;99.90;;;;;;5052321;28;19936;-77
2022/05/17 04:02:50;;;;;;;;;;;14.10;99.90;;;;;;5052445;28;20085;-77
2022/05/17 04:05:16;;;;;;;;;;;14.10;99.90;;;;;;5033949;28;19935;-78
2022/05/17 04:07:42;;;;;;;;;;;14.10;99.90;;;;;;5052321;28;20266;-77
2022/05/17 04:10:09;;;;;;;;;;;14.10;99.90;;;;;;5052427;28;19936;-78
2022/05/17 04:12:34;;;;;;;;;;;14.20;99.90;;;;;;5052066;28;20448;-78
2022/05/17 04:15:00;;;;;;;;;;;14.30;99.90;;;;;;5051520;28;20020;-77
2022/05/17 04:17:25;;;;;;;;;;;14.30;99.90;;;;;;5052666;28;20361;-77
2022/05/17 04:19:51;;;;;;;;;;;14.30;99.90;;;;;;5051591;28;19937;-77
2022/05/17 04:22:16;;;;;;;;;;;14.30;99.90;;;;;;5001874;28;19924;-77
2022/05/17 04:24:42;;;;;;;;;;;14.40;99.90;;;;;;5052371;28;19936;-77
2022/05/17 04:27:09;;;;;;;;;;;14.40;99.90;;;;;;5033902;28;19931;-77
2022/05/17 04:29:35;;;;;;;;;;;14.40;99.90;;;;;;5018259;28;19924;-77
2022/05/17 04:32:00;;;;;;;;;;;14.40;99.90;;;;;;4997845;28;20020;-77
2022/05/17 04:34:26;;;;;;;;;;;14.50;99.90;;;;;;5016726;28;20341;-78
2022/05/17 04:36:51;;;;;;;;;;;14.50;99.90;;;;;;5031535;28;19982;-81
2022/05/17 04:39:17;;;;;;;;;;;14.60;99.90;;;;;;5034224;28;19925;-77
2022/05/17 04:41:43;;;;;;;;;;;14.60;99.90;;;;;;5050784;28;19929;-77
2022/05/17 04:44:09;;;;;;;;;;;14.60;99.90;;;;;;5033942;28;20268;-77
2022/05/17 04:46:34;;;;;;;;;;;14.60;99.90;;;;;;5051667;28;19925;-77
2022/05/17 04:49:00;;;;;;;;;;;14.70;99.90;;;;;;5033787;28;19925;-78
2022/05/17 04:51:27;;;;;;;;;;;14.70;99.90;;;;;;5034183;28;19990;-78
2022/05/17 04:53:52;;;;;;;;;;;14.70;99.90;;;;;;5034235;28;19974;-79
2022/05/17 04:56:19;;;;;;;;;;;14.70;99.90;;;;;;5051532;28;19964;-80
2022/05/17 04:58:44;;;;;;;;;;;14.80;99.90;;;;;;5051355;28;20411;-77
2022/05/17 05:01:10;;;;;;;;;;;14.80;99.90;;;;;;5054336;28;19927;-77
2022/05/17 05:03:36;;;;;;;;;;;14.90;99.90;;;;;;5055501;28;20384;-81
2022/05/17 05:06:02;;;;;;;;;;;14.90;99.90;;;;;;5055401;28;19929;-77
2022/05/17 05:08:27;;;;;;;;;;;15.00;99.90;;;;;;5039295;28;19931;-77
2022/05/17 05:10:53;;;;;;;;;;;15.00;99.90;;;;;;5055181;28;19929;-77
2022/05/17 05:13:19;;;;;;;;;;;15.10;99.90;;;;;;5054461;28;20399;-77
2022/05/17 05:15:45;;;;;;;;;;;15.10;99.90;;;;;;5020666;28;19925;-77
2022/05/17 05:18:10;;;;;;;;;;;15.20;99.90;;;;;;5037440;28;19936;-77
2022/05/17 05:20:36;;;;;;;;;;;15.20;99.90;;;;;;5055154;28;19921;-78
2022/05/17 05:23:02;;;;;;;;;;;15.30;99.90;;;;;;5037565;28;19978;-77
2022/05/17 05:25:28;;;;;;;;;;;15.30;99.90;;;;;;5054391;28;19987;-77
2022/05/17 05:27:54;;;;;;;;;;;15.40;99.90;;;;;;5037348;28;19928;-77
2022/05/17 05:30:20;;;;;;;;;;;15.50;99.90;;;;;;5016775;28;20435;-77
2022/05/17 05:32:46;;;;;;;;;;;15.50;99.90;;;;;;5045172;28;19933;-78
2022/05/17 05:35:14;;;;;;;;;;;15.60;99.90;;;;;;5044898;28;19929;-78
2022/05/17 05:37:39;;;;;;;;;;;15.60;99.90;;;;;;5037350;28;20373;-77
2022/05/17 05:40:06;;;;;;;;;;;15.60;99.90;;;;;;5021103;28;19924;-78
2022/05/17 05:42:31;;;;;;;;;;;15.60;99.90;;;;;;5054420;28;19928;-78
2022/05/17 05:44:57;;;;;;;;;;;15.60;99.90;;;;;;5055224;28;20012;-77
2022/05/17 05:47:22;;;;;;;;;;;15.70;99.90;;;;;;5037160;28;20356;-77
2022/05/17 05:49:48;;;;;;;;;;;15.70;99.90;;;;;;5036411;28;19925;-77
2022/05/17 05:52:13;;;;;;;;;;;15.70;99.90;;;;;;5037110;28;19925;-77
2022/05/17 05:54:40;;;;;;;;;;;15.70;99.90;;;;;;5037827;28;19925;-77
2022/05/17 05:57:06;;;;;;;;;;;15.70;99.90;;;;;;5053462;28;19972;-79
2022/05/17 05:59:31;;;;;;;;;;;15.70;99.90;;;;;;5032973;28;19975;-78
2022/05/17 06:01:57;;;;;;;;;;;15.70;99.90;;;;;;5033119;28;19925;-80
2022/05/17 06:04:25;;;;;;;;;;;15.70;99.90;;;;;;5015940;28;19933;-79
2022/05/17 06:06:50;;;;;;;;;;;15.80;99.90;;;;;;5034715;28;19925;-79
2022/05/17 06:09:16;;;;;;;;;;;15.80;99.90;;;;;;5016579;28;19936;-79
2022/05/17 06:11:42;;;;;;;;;;;15.80;99.90;;;;;;5032018;28;19933;-76
2022/05/17 06:14:07;;;;;;;;;;;15.80;99.90;;;;;;5032792;28;19983;-79
2022/05/17 06:16:33;;;;;;;;;;;15.70;99.90;;;;;;5034785;28;20277;-77
2022/05/17 06:18:59;;;;;;;;;;;15.80;99.90;;;;;;5032495;28;20625;-77
2022/05/17 06:21:25;;;;;;;;;;;15.80;99.90;;;;;;5033689;28;19925;-82
2022/05/17 06:23:50;;;;;;;;;;;15.90;99.90;;;;;;5016501;28;20694;-76
2022/05/17 06:26:16;;;;;;;;;;;15.90;99.90;;;;;;5033473;28;19926;-80
2022/05/17 06:28:42;;;;;;;;;;;16.00;99.90;;;;;;5033958;28;19971;-78
2022/05/17 06:31:07;;;;;;;;;;;16.10;99.90;;;;;;5033694;28;19921;-76
2022/05/17 06:33:33;;;;;;;;;;;16.20;99.90;;;;;;5033509;28;19933;-78
2022/05/17 06:35:58;;;;;;;;;;;16.20;99.90;;;;;;5033082;28;20269;-75
2022/05/17 06:38:24;;;;;;;;;;;16.30;99.90;;;;;;5033598;28;19935;-76
2022/05/17 06:40:50;;;;;;;;;;;16.30;99.90;;;;;;5032003;28;19936;-75
2022/05/17 06:43:15;;;;;;;;;;;16.30;99.90;;;;;;5033493;28;20721;-81
2022/05/17 06:45:41;;;;;;;;;;;16.40;99.90;;;;;;5032344;28;19976;-75
2022/05/17 06:48:07;;;;;;;;;;;16.50;99.90;;;;;;5032195;28;19929;-78
2022/05/17 06:50:33;;;;;;;;;;;16.60;99.90;;;;;;5032491;28;19929;-79
2022/05/17 06:52:58;;;;;;;;;;;16.60;99.90;;;;;;5032178;28;20324;-78
2022/05/17 06:55:24;;;;;;;;;;;16.70;99.90;;;;;;5031871;28;20048;-79
2022/05/17 06:57:50;;;;;;;;;;;16.70;99.90;;;;;;5032760;28;19925;-78
2022/05/17 07:00:19;;;;;;;;;;;16.80;99.90;;;;;;5032541;28;20281;-79
2022/05/17 07:02:45;;;;;;;;;;;16.90;99.90;;;;;;5031738;28;20016;-79
2022/05/17 07:05:10;;;;;;;;;;;16.90;99.90;;;;;;5015342;28;20068;-79
2022/05/17 07:07:37;;;;;;;;;;;17.00;99.90;;;;;;5032773;28;19931;-79
2022/05/17 07:15:32;;;;;;;;;;;17.10;99.90;;;;;;5017220;28;20328;-79
2022/05/17 07:18:00;;;;;;;;;;;17.20;99.90;;;;;;5031104;28;20021;-79
2022/05/17 07:20:26;;;;;;;;;;;17.20;99.90;;;;;;5031544;28;19932;-79
2022/05/17 07:22:52;;;;;;;;;;;17.20;99.90;;;;;;5015715;28;19925;-79
2022/05/17 07:25:17;;;;;;;;;;;17.20;99.90;;;;;;5030933;28;20013;-79
2022/05/17 07:27:43;;;;;;;;;;;17.30;99.90;;;;;;5031829;28;19929;-79
2022/05/17 07:30:09;;;;;;;;;;;17.20;99.90;;;;;;5031770;28;20431;-79
2022/05/17 07:32:34;;;;;;;;;;;17.10;99.90;;;;;;5015025;28;19968;-79
2022/05/17 07:35:00;;;;;;;;;;;17.10;99.90;;;;;;5031723;28;19925;-80
2022/05/17 07:37:26;;;;;;;;;;;17.30;99.90;;;;;;5013407;28;19929;-79
2022/05/17 07:39:52;;;;;;;;;;;17.20;99.90;;;;;;5030757;28;19956;-79
2022/05/17 07:42:17;;;;;;;;;;;17.20;99.90;;;;;;5031354;28;19925;-79
2022/05/17 07:44:43;;;;;;;;;;;17.20;99.90;;;;;;5015180;28;19940;-79
2022/05/17 07:47:08;;;;;;;;;;;17.30;99.90;;;;;;5030309;28;19960;-79
2022/05/17 07:49:35;;;;;;;;;;;17.40;99.90;;;;;;5025934;28;19948;-77
2022/05/17 07:52:01;;;;;;;;;;;17.40;99.90;;;;;;5031281;28;19932;-81
2022/05/17 07:54:27;;;;;;;;;;;17.50;99.90;;;;;;5032252;28;19931;-80
2022/05/17 07:56:53;;;;;;;;;;;17.50;99.90;;;;;;5030721;28;20023;-78
2022/05/17 07:59:18;;;;;;;;;;;17.60;99.90;;;;;;5039280;28;19947;-77
2022/05/17 08:01:44;;;;;;;;;;;17.60;99.90;;;;;;5015816;28;19944;-77
2022/05/17 08:04:10;;;;;;;;;;;17.70;99.90;;;;;;5034802;28;19978;-77
2022/05/17 08:06:35;;;;;;;;;;;17.70;99.90;;;;;;5034125;28;19931;-78
2022/05/17 08:09:01;;;;;;;;;;;17.80;99.90;;;;;;5034331;28;19931;-80
2022/05/17 08:11:27;;;;;;;;;;;17.70;99.90;;;;;;5034204;28;20011;-79
2022/05/17 08:13:53;;;;;;;;;;;17.80;99.90;;;;;;5052610;28;20016;-79
2022/05/17 08:16:18;;;;;;;;;;;17.80;99.90;;;;;;5033705;28;19932;-78
2022/05/17 08:18:44;;;;;;;;;;;17.90;99.90;;;;;;5032457;28;20415;-77
2022/05/17 08:21:09;;;;;;;;;;;17.90;99.90;;;;;;5034057;28;19924;-75
2022/05/17 08:23:35;;;;;;;;;;;17.90;99.90;;;;;;5033789;28;19928;-80
2022/05/17 08:28:45;;;;;;;;;;;18.10;99.90;;;;;;5034488;28;20066;-79
2022/05/17 08:31:10;;;;;;;;;;;18.10;99.90;;;;;;5033879;28;20047;-75
2022/05/17 08:33:38;;;;;;;;;;;18.20;99.90;;;;;;5001159;28;20251;-78
2022/05/17 08:36:10;;;;;;;;;;;18.30;99.90;;;;;;5033795;28;19928;-76
2022/05/17 08:38:40;;;;;;;;;;;18.30;99.90;;;;;;5032504;28;19924;-77
2022/05/17 08:41:25;;;;;;;;;;;18.30;99.90;;;;;;5052140;28;19978;-78
2022/05/17 08:43:53;;;;;;;;;;;18.30;99.90;;;;;;5052110;28;19975;-78
2022/05/17 08:46:19;;;;;;;;;;;18.40;99.90;;;;;;5017029;28;20008;-78
2022/05/17 08:48:49;;;;;;;;;;;18.50;99.90;;;;;;5034269;28;20012;-77
2022/05/17 08:51:16;;;;;;;;;;;18.60;99.90;;;;;;5040168;28;19931;-77
2022/05/17 08:53:43;;;;;;;;;;;18.80;99.90;;;;;;5051349;28;20273;-77
2022/05/17 08:56:09;;;;;;;;;;;18.80;99.90;;;;;;5050923;28;20377;-77
2022/05/17 08:58:36;;;;;;;;;;;18.80;99.90;;;;;;5050879;28;19928;-77
2022/05/17 09:01:06;;;;;;;;;;;18.90;99.90;;;;;;5028116;28;19936;-78
2022/05/17 09:03:40;;;;;;;;;;;18.80;99.90;;;;;;5012929;28;19936;-79
2022/05/17 09:06:26;;;;;;;;;;;18.80;99.90;;;;;;5011484;28;19929;-78
2022/05/17 09:09:01;;;;;;;;;;;18.90;99.90;;;;;;5024313;28;19925;-78
2022/05/17 09:11:32;;;;;;;;;;;19.00;99.90;;;;;;5030023;28;19929;-77
2022/05/17 09:14:02;;;;;;;;;;;19.10;99.90;;;;;;5031344;28;19971;-77
2022/05/17 09:16:33;;;;;;;;;;;19.10;99.90;;;;;;5029559;28;19936;-77
2022/05/17 09:19:02;;;;;;;;;;;19.20;99.90;;;;;;5032014;28;20373;-77
2022/05/17 09:21:33;;;;;;;;;;;19.30;99.90;;;;;;5030035;28;19974;-77
2022/05/17 09:24:02;;;;;;;;;;;19.40;99.90;;;;;;5030061;28;20012;-77
2022/05/17 09:26:28;;;;;;;;;;;19.50;99.90;;;;;;5031211;28;19925;-83
2022/05/17 09:29:00;;;;;;;;;;;19.60;99.90;;;;;;5014507;28;19925;-77
2022/05/17 09:31:28;;;;;;;;;;;19.70;99.90;;;;;;5029516;28;19976;-78
2022/05/17 09:33:55;;;;;;;;;;;19.70;99.90;;;;;;5029050;28;19929;-77
2022/05/17 09:36:22;;;;;;;;;;;19.70;99.90;;;;;;5029431;28;19932;-78
2022/05/17 09:38:49;;;;;;;;;;;19.80;99.90;;;;;;5030727;28;19931;-78
2022/05/17 09:41:20;;;;;;;;;;;19.80;99.90;;;;;;5031185;28;19933;-77
2022/05/17 09:43:51;;;;;;;;;;;19.80;99.90;;;;;;5029576;28;20424;-78
2022/05/17 09:46:18;;;;;;;;;;;19.90;99.90;;;;;;5029142;28;19929;-78
2022/05/17 09:54:37;;;;;;;;;;;20.10;99.90;;;;;;5031998;28;19928;-76
2022/05/17 09:57:10;;;;;;;;;;;20.20;99.90;;;;;;5034288;28;19929;-77
2022/05/17 09:59:35;;;;;;;;;;;20.30;99.90;;;;;;5031771;28;20013;-77
2022/05/17 10:02:01;;;;;;;;;;;20.40;99.90;;;;;;5030431;28;20011;-78
2022/05/17 10:04:27;;;;;;;;;;;20.40;99.90;;;;;;5028215;28;20017;-81
2022/05/17 10:06:56;;;;;;;;;;;20.40;99.90;;;;;;5014653;28;19929;-78
2022/05/17 10:09:32;;;;;;;;;;;20.40;99.90;;;;;;5013394;28;20365;-78
2022/05/17 10:12:10;;;;;;;;;;;20.50;99.90;;;;;;5033925;28;20337;-77
2022/05/17 10:14:55;;;;;;;;;;;20.60;99.90;;;;;;5033742;28;20403;-77
2022/05/17 10:17:43;;;;;;;;;;;20.70;99.90;;;;;;5017123;28;19929;-78
2022/05/17 10:20:29;;;;;;;;;;;20.70;99.90;;;;;;5032992;28;19932;-78
2022/05/17 10:23:03;;;;;;;;;;;20.80;99.90;;;;;;5031784;28;20019;-78
2022/05/17 10:25:33;;;;;;;;;;;20.80;99.90;;;;;;5031940;28;20004;-80
2022/05/17 10:28:26;;;;;;;;;;;20.90;99.90;;;;;;5017021;28;19936;-78
2022/05/17 10:30:54;;;;;;;;;;;20.90;99.90;;;;;;5030604;28;19937;-78
2022/05/17 10:33:26;;;;;;;;;;;21.00;99.90;;;;;;5033985;28;20381;-78
2022/05/17 10:35:55;;;;;;;;;;;21.00;99.90;;;;;;5032833;28;19932;-78
2022/05/17 10:38:22;;;;;;;;;;;21.10;99.90;;;;;;5033377;28;19929;-78
2022/05/17 10:40:49;;;;;;;;;;;21.10;99.90;;;;;;5033672;28;19972;-78
2022/05/17 10:43:26;;;;;;;;;;;21.20;99.90;;;;;;5033692;28;20008;-77
2022/05/17 10:46:04;;;;;;;;;;;21.30;99.90;;;;;;5015907;28;19933;-77
2022/05/17 10:48:49;;;;;;;;;;;21.30;99.90;;;;;;5032635;28;19925;-78
2022/05/17 10:51:47;;;;;;;;;;;21.30;99.90;;;;;;5033039;28;19964;-78
2022/05/17 10:54:15;;;;;;;;;;;21.30;99.90;;;;;;5000290;28;19925;-77
2022/05/17 10:56:48;;;;;;;;;;;21.40;99.90;;;;;;5032742;28;19929;-78
2022/05/17 10:59:21;;;;;;;;;;;21.40;99.90;;;;;;5033726;28;20284;-78
2022/05/17 11:01:53;;;;;;;;;;;21.30;99.90;;;;;;5043055;28;19964;-77
2022/05/17 11:04:28;;;;;;;;;;;21.30;99.90;;;;;;5073657;28;19925;-79
2022/05/17 11:07:19;;;;;;;;;;;21.30;99.90;;;;;;5072910;28;19924;-78
2022/05/17 11:09:57;;;;;;;;;;;21.40;99.90;;;;;;5056277;28;20315;-77
2022/05/17 11:12:24;;;;;;;;;;;21.50;99.90;;;;;;5053643;28;19935;-77
2022/05/17 11:14:52;;;;;;;;;;;21.50;99.90;;;;;;5035202;28;19924;-77
2022/05/17 11:17:41;;;;;;;;;;;21.50;99.90;;;;;;5035933;28;20028;-78
2022/05/17 11:20:16;;;;;;;;;;;21.60;99.90;;;;;;5017772;28;20366;-78
2022/05/17 11:22:42;;;;;;;;;;;21.70;99.90;;;;;;5034250;28;20364;-77
2022/05/17 11:25:13;;;;;;;;;;;21.80;99.90;;;;;;5019323;28;19970;-78
2022/05/17 11:27:57;;;;;;;;;;;22.00;99.90;;;;;;5035233;28;19936;-78
2022/05/17 11:30:26;;;;;;;;;;;22.20;99.90;;;;;;5051700;28;20373;-78
2022/05/17 11:33:10;;;;;;;;;;;22.60;99.90;;;;;;5018891;28;20504;-78
2022/05/17 11:35:37;;;;;;;;;;;22.80;99.90;;;;;;5035507;28;19931;-79
2022/05/17 11:38:05;;;;;;;;;;;22.90;99.90;;;;;;5052117;28;19929;-78
2022/05/17 11:40:51;;;;;;;;;;;23.10;99.90;;;;;;5052402;28;19978;-77
2022/05/17 11:43:40;;;;;;;;;;;23.10;99.90;;;;;;5051898;28;19928;-81
2022/05/17 11:46:13;;;;;;;;;;;23.40;99.90;;;;;;4998218;28;19925;-80
2022/05/17 11:48:52;;;;;;;;;;;23.40;99.90;;;;;;5033954;28;19932;-79
2022/05/17 11:51:18;;;;;;;;;;;23.40;99.90;;;;;;5034344;28;19931;-79
2022/05/17 11:53:48;;;;;;;;;;;23.60;99.90;;;;;;5034599;28;20011;-77
2022/05/17 11:56:13;;;;;;;;;;;23.80;99.90;;;;;;5052539;28;20348;-80
2022/05/17 11:58:40;;;;;;;;;;;24.00;99.90;;;;;;5033587;28;20416;-84
2022/05/17 12:01:25;;;;;;;;;;;24.30;99.90;;;;;;5034636;28;20296;-83
2022/05/17 12:03:51;;;;;;;;;;;24.50;99.90;;;;;;5034811;28;20249;-78
2022/05/17 12:06:28;;;;;;;;;;;24.50;99.90;;;;;;5051619;28;19932;-82
2022/05/17 12:08:53;;;;;;;;;;;24.60;99.90;;;;;;5033852;28;19936;-81
2022/05/17 12:11:38;;;;;;;;;;;24.80;99.90;;;;;;5050784;28;19929;-81
2022/05/17 12:14:08;;;;;;;;;;;25.00;99.90;;;;;;5032773;28;19942;-80
2022/05/17 12:16:35;;;;;;;;;;;25.00;99.90;;;;;;5015366;28;19932;-81
2022/05/17 12:19:13;;;;;;;;;;;25.20;99.60;;;;;;5050337;28;20340;-80
2022/05/17 12:21:42;;;;;;;;;;;25.10;98.60;;;;;;5031947;28;19931;-78
2022/05/17 12:24:20;;;;;;;;;;;25.20;99.30;;;;;;5034252;28;19925;-80
2022/05/17 12:26:45;;;;;;;;;;;25.10;99.00;;;;;;5032432;28;19933;-79
2022/05/17 12:32:04;;;;;;;;;;;25.30;99.50;;;;;;5033690;28;20320;-78
2022/05/17 12:34:30;;;;;;;;;;;25.30;99.40;;;;;;5049694;28;20449;-79
2022/05/17 12:37:15;;;;;;;;;;;25.00;99.20;;;;;;5031023;28;19929;-80
2022/05/17 12:45:19;;;;;;;;;;;24.90;99.90;;;;;;5020231;28;20019;-78
2022/05/17 12:47:50;;;;;;;;;;;25.20;99.90;;;;;;5023017;28;19932;-82
2022/05/17 12:50:35;;;;;;;;;;;25.40;99.90;;;;;;5017577;28;20416;-80
2022/05/17 12:53:01;;;;;;;;;;;25.60;99.40;;;;;;5032545;28;20002;-80
2022/05/17 12:55:30;;;;;;;;;;;25.60;97.40;;;;;;5033256;28;20393;-80
2022/05/17 12:58:07;;;;;;;;;;;25.50;98.10;;;;;;5032969;28;19925;-80
2022/05/17 13:00:32;;;;;;;;;;;25.60;95.60;;;;;;5029847;28;19947;-80
2022/05/17 13:03:01;;;;;;;;;;;25.80;95.40;;;;;;5030504;28;20362;-78
2022/05/17 13:05:29;;;;;;;;;;;25.70;91.70;;;;;;5012961;28;19954;-78
2022/05/17 13:08:12;;;;;;;;;;;25.80;94.50;;;;;;5029703;28;19925;-79
2022/05/17 13:10:39;;;;;;;;;;;26.00;95.10;;;;;;5028632;28;19925;-80
2022/05/17 13:13:14;;;;;;;;;;;26.10;95.00;;;;;;5031083;28;19926;-80
2022/05/17 13:15:42;;;;;;;;;;;26.00;93.80;;;;;;5029792;28;19925;-77
2022/05/17 13:18:10;;;;;;;;;;;26.30;94.10;;;;;;5031131;28;20449;-77
2022/05/17 13:20:37;;;;;;;;;;;26.60;92.70;;;;;;5012908;28;20392;-78
2022/05/17 13:23:04;;;;;;;;;;;26.60;92.30;;;;;;5016949;28;19925;-81
2022/05/17 13:25:36;;;;;;;;;;;26.80;91.50;;;;;;5034739;28;20305;-80
2022/05/17 13:28:02;;;;;;;;;;;26.70;87.00;;;;;;5033951;28;19932;-80
2022/05/17 13:30:33;;;;;;;;;;;26.70;89.40;;;;;;5017463;28;19926;-81
2022/05/17 13:33:01;;;;;;;;;;;26.50;88.60;;;;;;5034390;28;20370;-81
2022/05/17 13:35:28;;;;;;;;;;;26.70;86.20;;;;;;5033980;28;20016;-86
2022/05/17 13:38:00;;;;;;;;;;;26.90;86.90;;;;;;5017360;28;19929;-80
2022/05/17 13:40:34;;;;;;;;;;;27.00;84.50;;;;;;5033769;28;19925;-81
2022/05/17 13:43:00;;;;;;;;;;;26.90;83.90;;;;;;5032483;28;19929;-78
2022/05/17 13:45:31;;;;;;;;;;;27.30;78.30;;;;;;5029007;28;20032;-79
2022/05/17 13:47:56;;;;;;;;;;;27.30;78.40;;;;;;5033096;28;19971;-82
2022/05/17 13:50:27;;;;;;;;;;;27.60;79.30;;;;;;5016456;28;20389;-82
2022/05/17 13:52:56;;;;;;;;;;;28.10;76.40;;;;;;5016593;28;19925;-81
2022/05/17 13:55:27;;;;;;;;;;;28.40;72.50;;;;;;5032877;28;19925;-82
2022/05/17 13:57:54;;;;;;;;;;;28.20;66.40;;;;;;5032855;28;19932;-82
2022/05/17 14:00:22;;;;;;;;;;;28.60;68.30;;;;;;5031023;28;19976;-80
2022/05/17 14:02:47;;;;;;;;;;;28.60;60.40;;;;;;5020476;28;19926;-79
2022/05/17 14:05:22;;;;;;;;;;;28.80;59.10;;;;;;5014742;28;20068;-80
2022/05/17 14:07:57;;;;;;;;;;;28.90;57.00;;;;;;5029344;28;20275;-81
2022/05/17 14:13:14;;;;;;;;;;;28.60;57.20;;;;;;5013537;28;19975;-80
2022/05/17 14:15:41;;;;;;;;;;;28.60;52.90;;;;;;5015019;28;19968;-81
2022/05/17 14:18:11;;;;;;;;;;;28.90;52.60;;;;;;5014025;28;20412;-81
2022/05/17 14:20:37;;;;;;;;;;;29.40;51.20;;;;;;5031711;28;19925;-81
2022/05/17 14:23:02;;;;;;;;;;;29.70;50.70;;;;;;5015395;28;19929;-81
2022/05/17 14:25:28;;;;;;;;;;;29.70;49.60;;;;;;5032798;28;19925;-82
2022/05/17 14:27:56;;;;;;;;;;;30.00;50.50;;;;;;5016862;28;20227;-85
2022/05/17 14:30:22;;;;;;;;;;;30.30;49.70;;;;;;5016400;28;19929;-82
2022/05/17 14:32:47;;;;;;;;;;;30.70;50.60;;;;;;5033427;28;19932;-81
2022/05/17 14:35:14;;;;;;;;;;;30.40;50.30;;;;;;5019955;28;20019;-81
2022/05/17 14:37:39;;;;;;;;;;;30.50;50.80;;;;;;5037114;28;20258;-80
2022/05/17 14:40:05;;;;;;;;;;;30.60;50.80;;;;;;5032638;28;19936;-82
2022/05/17 14:42:31;;;;;;;;;;;30.40;52.30;;;;;;5015932;28;19936;-84
2022/05/17 14:44:56;;;;;;;;;;;30.50;52.80;;;;;;5033029;28;19925;-80
2022/05/17 14:47:24;;;;;;;;;;;30.80;56.90;;;;;;5016672;28;19924;-80
2022/05/17 14:49:59;;;;;;;;;;;30.70;55.50;;;;;;5033366;28;19936;-83